createdAt,value
2019-03-25T00:02:42.091Z,9.60
2019-03-25T00:05:47.676Z,9.50
2019-03-25T00:09:04.881Z,9.50
2019-03-25T00:12:00.772Z,9.40
2019-03-25T00:15:06.718Z,9.40
2019-03-25T00:18:12.463Z,9.40
2019-03-25T00:21:18.133Z,9.40
2019-03-25T00:24:23.783Z,9.40
2019-03-25T00:27:29.455Z,9.30
2019-03-25T00:30:35.130Z,9.30
2019-03-25T00:33:40.650Z,9.30
2019-03-25T00:36:46.239Z,9.20
2019-03-25T00:39:52.750Z,9.20
2019-03-25T00:42:58.671Z,9.10
2019-03-25T00:46:04.261Z,9.10
2019-03-25T00:49:09.923Z,9.00
2019-03-25T00:52:15.523Z,8.90
2019-03-25T00:55:24.128Z,8.80
2019-03-25T00:58:29.798Z,8.80
2019-03-25T01:01:35.486Z,8.80
2019-03-25T01:04:41.163Z,8.70
2019-03-25T01:07:46.827Z,8.70
2019-03-25T01:10:52.483Z,8.60
2019-03-25T01:13:57.987Z,8.60
2019-03-25T01:17:03.575Z,8.50
2019-03-25T01:20:09.492Z,8.40
2019-03-25T01:23:15.128Z,8.40
2019-03-25T01:26:20.763Z,8.40
2019-03-25T01:29:26.271Z,8.30
2019-03-25T01:32:31.776Z,8.20
2019-03-25T01:35:37.426Z,8.10
2019-03-25T01:38:43.101Z,8.00
2019-03-25T01:41:48.747Z,8.00
2019-03-25T01:44:54.349Z,8.00
2019-03-25T01:48:00.023Z,8.00
2019-03-25T01:51:05.752Z,7.90
2019-03-25T01:54:11.341Z,7.80
2019-03-25T01:57:16.912Z,7.80
2019-03-25T02:00:22.645Z,7.70
2019-03-25T02:03:28.271Z,7.60
2019-03-25T02:06:33.852Z,7.60
2019-03-25T02:09:39.454Z,7.50
2019-03-25T02:12:45.130Z,7.50
2019-03-25T02:15:50.809Z,7.50
2019-03-25T02:18:56.474Z,7.50
2019-03-25T02:22:02.132Z,7.50
2019-03-25T02:25:07.941Z,7.50
2019-03-25T02:28:13.623Z,7.50
2019-03-25T02:31:19.302Z,7.50
2019-03-25T02:34:24.991Z,7.40
2019-03-25T02:37:30.720Z,7.30
2019-03-25T02:40:36.316Z,7.30
2019-03-25T02:43:41.959Z,7.30
2019-03-25T02:46:47.556Z,7.30
2019-03-25T02:49:53.173Z,7.20
2019-03-25T02:52:58.761Z,7.20
2019-03-25T02:56:04.713Z,7.10
2019-03-25T02:59:10.388Z,7.10
2019-03-25T03:02:16.048Z,7.20
2019-03-25T03:05:21.573Z,7.20
2019-03-25T03:08:27.251Z,7.30
2019-03-25T03:11:32.772Z,7.30
2019-03-25T03:14:38.296Z,7.20
2019-03-25T03:17:43.958Z,7.20
2019-03-25T03:20:49.559Z,7.10
2019-03-25T03:23:55.293Z,7.00
2019-03-25T03:27:00.882Z,7.00
2019-03-25T03:30:06.719Z,6.90
2019-03-25T03:33:12.455Z,6.70
2019-03-25T03:36:18.124Z,6.60
2019-03-25T03:39:23.737Z,6.50
2019-03-25T03:42:29.414Z,6.50
2019-03-25T03:45:35.117Z,6.40
2019-03-25T03:48:40.643Z,6.40
2019-03-25T03:51:46.390Z,6.40
2019-03-25T03:54:52.232Z,6.30
2019-03-25T03:57:58.232Z,6.20
2019-03-25T04:01:05.014Z,6.20
2019-03-25T04:04:10.705Z,6.10
2019-03-25T04:07:16.376Z,6.00
2019-03-25T04:10:22.136Z,5.90
2019-03-25T04:13:27.769Z,5.80
2019-03-25T04:16:33.384Z,5.70
2019-03-25T04:19:38.895Z,5.60
2019-03-25T04:22:44.494Z,5.60
2019-03-25T04:25:50.184Z,5.50
2019-03-25T04:28:55.695Z,5.40
2019-03-25T04:32:01.365Z,5.40
2019-03-25T04:35:07.034Z,5.30
2019-03-25T04:38:12.655Z,5.20
2019-03-25T04:41:18.408Z,5.30
2019-03-25T04:44:23.996Z,5.20
2019-03-25T04:47:29.592Z,5.20
2019-03-25T04:50:35.211Z,5.20
2019-03-25T04:53:40.816Z,5.10
2019-03-25T04:56:46.508Z,5.10
2019-03-25T04:59:52.084Z,5.10
2019-03-25T05:02:57.846Z,5.00
2019-03-25T05:06:03.819Z,4.90
2019-03-25T05:09:09.671Z,4.90
2019-03-25T05:12:15.603Z,4.90
2019-03-25T05:15:21.633Z,4.90
2019-03-25T05:18:27.547Z,4.80
2019-03-25T05:21:33.343Z,4.80
2019-03-25T05:24:39.108Z,4.70
2019-03-25T05:27:44.905Z,4.70
2019-03-25T05:30:50.586Z,4.70
2019-03-25T05:33:56.483Z,4.60
2019-03-25T05:37:02.093Z,4.70
2019-03-25T05:40:08.055Z,4.70
2019-03-25T05:43:13.892Z,4.60
2019-03-25T05:46:19.608Z,4.60
2019-03-25T05:49:25.659Z,4.60
2019-03-25T05:52:31.623Z,4.60
2019-03-25T05:55:37.467Z,4.60
2019-03-25T05:58:43.263Z,4.60
2019-03-25T06:01:49.000Z,4.60
2019-03-25T06:04:54.515Z,4.60
2019-03-25T06:08:00.107Z,4.70
2019-03-25T06:11:05.758Z,4.70
2019-03-25T06:14:11.427Z,4.80
2019-03-25T06:17:16.956Z,4.80
2019-03-25T06:20:22.633Z,4.80
2019-03-25T06:23:28.348Z,4.80
2019-03-25T06:26:33.945Z,4.90
2019-03-25T06:29:39.620Z,5.00
2019-03-25T06:32:45.336Z,5.00
2019-03-25T06:35:50.862Z,5.10
2019-03-25T06:38:56.475Z,5.10
2019-03-25T06:42:02.160Z,5.20
2019-03-25T06:45:08.804Z,5.30
2019-03-25T06:48:14.403Z,5.40
2019-03-25T06:51:20.381Z,5.40
2019-03-25T06:54:26.049Z,5.50
2019-03-25T06:57:31.627Z,5.70
2019-03-25T07:00:37.299Z,5.70
2019-03-25T07:03:42.917Z,5.80
2019-03-25T07:06:48.579Z,6.00
2019-03-25T07:09:54.253Z,6.10
2019-03-25T07:13:00.252Z,6.20
2019-03-25T07:16:05.931Z,6.30
2019-03-25T07:19:11.595Z,6.30
2019-03-25T07:22:17.259Z,6.40
2019-03-25T07:25:25.299Z,6.40
2019-03-25T07:28:31.027Z,6.50
2019-03-25T07:31:36.700Z,6.70
2019-03-25T07:34:42.199Z,6.80
2019-03-25T07:37:47.868Z,7.00
2019-03-25T07:40:53.537Z,7.20
2019-03-25T07:43:59.180Z,7.30
2019-03-25T07:47:04.882Z,7.50
2019-03-25T07:50:11.092Z,7.50
2019-03-25T07:53:16.627Z,7.60
2019-03-25T07:56:22.362Z,7.50
2019-03-25T07:59:28.050Z,7.50
2019-03-25T08:02:33.769Z,7.50
2019-03-25T08:05:39.344Z,7.60
2019-03-25T08:08:45.098Z,7.60
2019-03-25T08:11:50.744Z,7.60
2019-03-25T08:14:56.495Z,7.50
2019-03-25T08:18:02.327Z,7.60
2019-03-25T08:21:08.072Z,7.60
2019-03-25T08:24:13.676Z,7.60
2019-03-25T08:27:19.483Z,7.70
2019-03-25T08:30:25.301Z,7.60
2019-03-25T08:33:30.982Z,7.40
2019-03-25T08:36:36.585Z,7.10
2019-03-25T08:39:42.179Z,7.00
2019-03-25T08:42:47.829Z,6.90
2019-03-25T08:45:53.500Z,6.80
2019-03-25T08:48:59.074Z,6.80
2019-03-25T08:52:04.757Z,6.90
2019-03-25T08:55:10.457Z,6.90
2019-03-25T08:58:16.159Z,6.90
2019-03-25T09:01:21.821Z,6.90
2019-03-25T09:04:27.512Z,6.90
2019-03-25T09:07:33.104Z,6.90
2019-03-25T09:10:38.790Z,6.80
2019-03-25T09:13:44.528Z,6.80
2019-03-25T09:16:50.124Z,6.90
2019-03-25T09:19:55.808Z,7.10
2019-03-25T09:23:01.467Z,7.30
2019-03-25T09:26:07.213Z,7.40
2019-03-25T09:29:12.880Z,7.40
2019-03-25T09:32:18.632Z,7.30
2019-03-25T09:35:24.384Z,7.20
2019-03-25T09:38:30.046Z,7.40
2019-03-25T09:41:35.788Z,7.70
2019-03-25T09:44:41.379Z,7.90
2019-03-25T09:47:47.044Z,7.90
2019-03-25T09:50:52.656Z,7.80
2019-03-25T09:53:58.324Z,7.60
2019-03-25T09:57:03.994Z,7.50
2019-03-25T10:00:11.527Z,7.40
2019-03-25T10:03:17.131Z,7.30
2019-03-25T10:06:22.812Z,7.20
2019-03-25T10:09:28.479Z,7.20
2019-03-25T10:12:34.100Z,7.20
2019-03-25T10:15:39.848Z,7.30
2019-03-25T10:18:45.508Z,7.40
2019-03-25T10:21:51.113Z,7.30
2019-03-25T10:24:56.787Z,7.10
2019-03-25T10:28:02.450Z,6.90
2019-03-25T10:31:08.142Z,6.80
2019-03-25T10:34:13.721Z,6.80
2019-03-25T10:37:19.320Z,6.80
2019-03-25T10:40:24.979Z,7.00
2019-03-25T10:43:30.579Z,7.40
2019-03-25T10:46:36.244Z,7.70
2019-03-25T10:49:41.859Z,7.90
2019-03-25T10:52:47.703Z,8.10
2019-03-25T10:55:53.379Z,8.10
2019-03-25T10:58:59.031Z,8.10
2019-03-25T11:02:05.107Z,7.90
2019-03-25T11:05:10.952Z,7.70
2019-03-25T11:08:16.628Z,7.50
2019-03-25T11:11:22.284Z,7.30
2019-03-25T11:14:27.953Z,7.20
2019-03-25T11:17:33.612Z,7.40
2019-03-25T11:20:39.275Z,7.60
2019-03-25T11:23:44.911Z,7.60
2019-03-25T11:26:50.563Z,7.90
2019-03-25T11:29:56.236Z,8.00
2019-03-25T11:33:01.833Z,8.10
2019-03-25T11:36:07.583Z,8.30
2019-03-25T11:39:13.274Z,8.60
2019-03-25T11:42:18.944Z,8.60
2019-03-25T11:45:24.631Z,8.70
2019-03-25T11:48:30.358Z,8.90
2019-03-25T11:51:35.993Z,8.90
2019-03-25T11:54:41.592Z,8.80
2019-03-25T11:57:47.200Z,8.70
2019-03-25T12:00:52.800Z,9.00
2019-03-25T12:03:58.388Z,9.20
2019-03-25T12:07:04.046Z,9.20
2019-03-25T12:10:09.727Z,9.00
2019-03-25T12:13:15.385Z,8.80
2019-03-25T12:16:21.050Z,8.10
2019-03-25T12:19:26.714Z,6.70
2019-03-25T12:22:32.284Z,5.70
2019-03-25T12:25:37.959Z,5.10
2019-03-25T12:28:43.621Z,4.60
2019-03-25T12:31:49.222Z,4.40
2019-03-25T12:34:54.871Z,4.40
2019-03-25T12:38:00.402Z,4.40
2019-03-25T12:41:06.431Z,4.30
2019-03-25T12:44:12.104Z,4.30
2019-03-25T12:47:18.008Z,4.50
2019-03-25T12:50:23.901Z,4.90
2019-03-25T12:53:29.788Z,5.30
2019-03-25T12:56:35.668Z,5.60
2019-03-25T12:59:41.828Z,5.80
2019-03-25T13:02:47.886Z,5.90
2019-03-25T13:05:53.773Z,5.90
2019-03-25T13:09:00.227Z,6.00
2019-03-25T13:12:06.323Z,6.20
2019-03-25T13:15:12.208Z,6.30
2019-03-25T13:18:18.119Z,6.40
2019-03-25T13:21:23.995Z,6.60
2019-03-25T13:24:29.886Z,6.60
2019-03-25T13:27:35.873Z,6.50
2019-03-25T13:30:41.768Z,6.50
2019-03-25T13:33:47.908Z,6.70
2019-03-25T13:36:53.843Z,6.90
2019-03-25T13:39:59.747Z,7.00
2019-03-25T13:43:05.699Z,7.10
2019-03-25T13:46:11.616Z,7.20
2019-03-25T13:49:17.547Z,7.10
2019-03-25T13:52:23.411Z,7.10
2019-03-25T13:55:29.297Z,7.20
2019-03-25T13:58:35.158Z,7.40
2019-03-25T14:01:41.923Z,7.70
2019-03-25T14:04:47.793Z,8.10
2019-03-25T14:07:53.755Z,8.20
2019-03-25T14:11:02.893Z,8.30
2019-03-25T14:14:08.780Z,8.10
2019-03-25T14:17:14.673Z,7.70
2019-03-25T14:20:20.555Z,7.20
2019-03-25T14:23:26.432Z,6.90
2019-03-25T14:26:32.306Z,6.70
2019-03-25T14:29:38.244Z,6.80
2019-03-25T14:32:44.167Z,6.90
2019-03-25T14:35:50.044Z,6.80
2019-03-25T14:38:56.019Z,7.00
2019-03-25T14:42:04.181Z,7.20
2019-03-25T14:45:10.463Z,7.10
2019-03-25T14:48:16.368Z,7.20
2019-03-25T14:51:22.236Z,7.30
2019-03-25T14:54:28.139Z,7.40
2019-03-25T14:57:34.079Z,7.40
2019-03-25T15:00:39.983Z,7.50
2019-03-25T15:03:45.859Z,7.50
2019-03-25T15:06:51.745Z,7.60
2019-03-25T15:09:57.630Z,7.70
2019-03-25T15:13:03.548Z,7.80
2019-03-25T15:16:09.471Z,7.80
2019-03-25T15:19:15.363Z,7.90
2019-03-25T15:22:21.260Z,7.90
2019-03-25T15:25:27.168Z,8.00
2019-03-25T15:28:33.074Z,8.00
2019-03-25T15:31:38.945Z,8.00
2019-03-25T15:34:44.835Z,7.90
2019-03-25T15:37:50.735Z,7.90
2019-03-25T15:40:56.637Z,7.70
2019-03-25T15:44:02.608Z,7.50
2019-03-25T15:47:08.494Z,7.50
2019-03-25T15:50:14.876Z,7.30
2019-03-25T15:53:20.749Z,7.40
2019-03-25T15:56:26.643Z,7.30
2019-03-25T15:59:32.905Z,7.20
2019-03-25T16:02:38.803Z,7.10
2019-03-25T16:05:44.710Z,7.00
2019-03-25T16:08:50.587Z,7.00
2019-03-25T16:11:56.460Z,7.00
2019-03-25T16:15:02.408Z,7.10
2019-03-25T16:18:08.917Z,7.10
2019-03-25T16:21:14.914Z,7.10
2019-03-25T16:24:20.809Z,7.20
2019-03-25T16:27:26.699Z,7.10
2019-03-25T16:30:32.567Z,7.00
2019-03-25T16:33:40.415Z,6.90
2019-03-25T16:36:46.086Z,6.80
2019-03-25T16:39:51.997Z,6.80
2019-03-25T16:42:57.939Z,6.70
2019-03-25T16:46:11.201Z,6.70
2019-03-25T16:49:17.068Z,6.60
2019-03-25T16:52:22.934Z,6.50
2019-03-25T16:55:28.804Z,6.50
2019-03-25T16:58:34.701Z,6.50
2019-03-25T17:01:41.667Z,6.40
2019-03-25T17:04:47.823Z,6.40
2019-03-25T17:07:53.768Z,6.40
2019-03-25T17:10:59.793Z,6.40
2019-03-25T17:14:05.676Z,6.40
2019-03-25T17:17:11.564Z,6.40
2019-03-25T17:20:17.447Z,6.40
2019-03-25T17:23:23.413Z,6.40
2019-03-25T17:26:29.283Z,6.40
2019-03-25T17:29:35.232Z,6.40
2019-03-25T17:32:41.115Z,6.40
2019-03-25T17:35:47.027Z,6.40
2019-03-25T17:38:53.008Z,6.40
2019-03-25T17:41:58.895Z,6.40
2019-03-25T17:45:04.848Z,6.40
2019-03-25T17:48:10.780Z,6.40
2019-03-25T17:51:16.687Z,6.40
2019-03-25T17:54:22.601Z,6.50
2019-03-25T17:57:28.476Z,6.50
2019-03-25T18:01:12.016Z,6.50
2019-03-25T18:04:17.941Z,6.60
2019-03-25T18:07:23.803Z,6.60
2019-03-25T18:10:29.724Z,6.70
2019-03-25T18:13:35.627Z,6.70
2019-03-25T18:16:41.531Z,6.70
2019-03-25T18:19:47.419Z,6.70
2019-03-25T18:22:53.307Z,6.70
2019-03-25T18:25:59.588Z,6.70
2019-03-25T18:29:05.584Z,6.50
2019-03-25T18:32:11.564Z,6.30
2019-03-25T18:35:23.999Z,6.20
2019-03-25T18:38:29.929Z,6.30
2019-03-25T18:41:35.951Z,6.30
2019-03-25T18:44:41.891Z,6.30
2019-03-25T18:47:47.935Z,6.30
2019-03-25T18:50:54.042Z,6.20
2019-03-25T18:53:59.994Z,6.10
2019-03-25T18:57:05.981Z,6.10
2019-03-25T19:00:16.083Z,6.00
2019-03-25T19:03:22.384Z,6.10
2019-03-25T19:06:28.298Z,6.00
2019-03-25T19:09:34.329Z,6.00
2019-03-25T19:12:40.275Z,6.00
2019-03-25T19:15:46.186Z,6.00
2019-03-25T19:18:52.161Z,6.00
2019-03-25T19:21:58.060Z,5.90
2019-03-25T19:25:04.147Z,5.90
2019-03-25T19:28:10.138Z,5.90
2019-03-25T19:31:16.099Z,5.90
2019-03-25T19:34:22.003Z,5.80
2019-03-25T19:37:27.931Z,5.70
2019-03-25T19:40:33.929Z,5.60
2019-03-25T19:43:39.884Z,5.60
2019-03-25T19:46:45.845Z,5.50
2019-03-25T19:49:51.883Z,5.40
2019-03-25T19:52:57.889Z,5.40
2019-03-25T19:56:03.797Z,5.30
2019-03-25T19:59:09.811Z,5.30
2019-03-25T20:02:19.325Z,5.30
2019-03-25T20:05:23.412Z,5.30
2019-03-25T20:08:29.823Z,5.40
2019-03-25T20:11:35.775Z,5.40
2019-03-25T20:14:41.732Z,5.50
2019-03-25T20:17:47.695Z,5.50
2019-03-25T20:20:53.775Z,5.60
2019-03-25T20:23:59.747Z,5.60
2019-03-25T20:27:06.073Z,5.60
2019-03-25T20:30:12.386Z,5.70
2019-03-25T20:33:18.299Z,5.80
2019-03-25T20:36:24.240Z,5.80
2019-03-25T20:39:30.192Z,5.80
2019-03-25T20:42:36.206Z,5.80
2019-03-25T20:45:42.159Z,5.90
2019-03-25T20:48:48.101Z,6.00
2019-03-25T20:51:53.989Z,5.90
2019-03-25T20:54:59.884Z,5.90
2019-03-25T20:58:05.807Z,5.80
2019-03-25T21:01:23.975Z,5.80
2019-03-25T21:04:29.991Z,5.70
2019-03-25T21:07:35.997Z,5.70
2019-03-25T21:10:41.937Z,5.70
2019-03-25T21:13:55.440Z,5.70
2019-03-25T21:17:01.405Z,5.70
2019-03-25T21:20:09.324Z,5.80
2019-03-25T21:23:15.372Z,5.70
2019-03-25T21:26:21.789Z,5.70
2019-03-25T21:29:27.743Z,5.70
2019-03-25T21:32:33.803Z,5.70
2019-03-25T21:35:39.895Z,5.70
2019-03-25T21:38:45.856Z,5.60
2019-03-25T21:41:51.844Z,5.40
2019-03-25T21:44:57.787Z,5.20
2019-03-25T21:48:03.891Z,5.20
2019-03-25T21:51:09.817Z,5.00
2019-03-25T21:54:15.708Z,5.00
2019-03-25T21:57:21.681Z,4.90
2019-03-25T22:00:27.607Z,4.90
2019-03-25T22:03:33.571Z,4.90
2019-03-25T22:06:39.475Z,4.90
2019-03-25T22:09:45.471Z,5.00
2019-03-25T22:12:51.366Z,5.00
2019-03-25T22:15:57.252Z,4.90
2019-03-25T22:19:03.171Z,4.90
2019-03-25T22:22:09.073Z,4.80
2019-03-25T22:25:15.171Z,4.80
2019-03-25T22:28:21.173Z,4.80
2019-03-25T22:31:27.081Z,4.70
2019-03-25T22:34:33.072Z,4.70
2019-03-25T22:37:38.973Z,4.70
2019-03-25T22:40:44.882Z,4.70
2019-03-25T22:43:50.778Z,4.70
2019-03-25T22:46:56.755Z,4.70
2019-03-25T22:50:02.656Z,4.70
2019-03-25T22:53:08.601Z,4.70
2019-03-25T22:56:14.650Z,4.70
2019-03-25T22:59:20.616Z,4.60
2019-03-25T23:02:27.243Z,4.60
2019-03-25T23:05:33.166Z,4.70
2019-03-25T23:08:39.063Z,4.70
2019-03-25T23:11:44.971Z,4.80
2019-03-25T23:14:50.880Z,4.80
2019-03-25T23:17:56.770Z,4.90
2019-03-25T23:21:02.663Z,4.90
2019-03-25T23:24:08.555Z,4.80
2019-03-25T23:27:14.456Z,4.70
2019-03-25T23:30:20.365Z,4.60
2019-03-25T23:33:26.245Z,4.50
2019-03-25T23:36:32.150Z,4.40
2019-03-25T23:39:38.068Z,4.40
2019-03-25T23:42:43.958Z,4.30
2019-03-25T23:45:49.877Z,4.40
2019-03-25T23:48:55.748Z,4.40
2019-03-25T23:52:02.100Z,4.40
2019-03-25T23:55:08.123Z,4.40
2019-03-25T23:58:14.088Z,4.30
